sensor_id;sensor_type;location;lat;lon;timestamp;P1;durP1;ratioP1;P2;durP2;ratioP2
39188;SDS011;24915;50.858;4.376;2023-02-26T00:00:34;17.60;;;5.03;;
39188;SDS011;24915;50.858;4.376;2023-02-26T00:03:00;13.68;;;4.45;;
39188;SDS011;24915;50.858;4.376;2023-02-26T00:05:26;13.45;;;4.90;;
39188;SDS011;24915;50.858;4.376;2023-02-26T00:07:51;14.82;;;4.95;;
39188;SDS011;24915;50.858;4.376;2023-02-26T00:10:17;19.35;;;4.68;;
39188;SDS011;24915;50.858;4.376;2023-02-26T00:12:43;20.83;;;5.38;;
39188;SDS011;24915;50.858;4.376;2023-02-26T00:15:10;18.10;;;5.85;;
39188;SDS011;24915;50.858;4.376;2023-02-26T00:17:51;20.17;;;5.60;;
39188;SDS011;24915;50.858;4.376;2023-02-26T00:20:25;17.20;;;5.50;;
39188;SDS011;24915;50.858;4.376;2023-02-26T00:22:51;23.33;;;5.20;;
39188;SDS011;24915;50.858;4.376;2023-02-26T00:25:17;17.90;;;5.68;;
39188;SDS011;24915;50.858;4.376;2023-02-26T00:27:43;26.50;;;5.88;;
39188;SDS011;24915;50.858;4.376;2023-02-26T00:30:09;13.45;;;4.72;;
39188;SDS011;24915;50.858;4.376;2023-02-26T00:32:36;20.42;;;5.25;;
39188;SDS011;24915;50.858;4.376;2023-02-26T00:35:04;16.20;;;4.53;;
39188;SDS011;24915;50.858;4.376;2023-02-26T00:40:27;19.55;;;4.47;;
39188;SDS011;24915;50.858;4.376;2023-02-26T00:43:14;17.55;;;4.43;;
39188;SDS011;24915;50.858;4.376;2023-02-26T00:46:05;15.35;;;4.60;;
39188;SDS011;24915;50.858;4.376;2023-02-26T00:51:09;18.23;;;4.75;;
39188;SDS011;24915;50.858;4.376;2023-02-26T00:54:01;21.50;;;4.55;;
39188;SDS011;24915;50.858;4.376;2023-02-26T00:56:29;16.30;;;4.55;;
39188;SDS011;24915;50.858;4.376;2023-02-26T00:58:54;13.93;;;4.50;;
39188;SDS011;24915;50.858;4.376;2023-02-26T01:01:20;17.70;;;4.32;;
39188;SDS011;24915;50.858;4.376;2023-02-26T01:03:46;20.80;;;5.18;;
39188;SDS011;24915;50.858;4.376;2023-02-26T01:06:12;17.35;;;5.30;;
39188;SDS011;24915;50.858;4.376;2023-02-26T01:08:51;14.93;;;4.60;;
39188;SDS011;24915;50.858;4.376;2023-02-26T01:11:26;22.05;;;4.75;;
39188;SDS011;24915;50.858;4.376;2023-02-26T01:13:52;19.30;;;5.47;;
39188;SDS011;24915;50.858;4.376;2023-02-26T01:16:22;18.08;;;4.75;;
39188;SDS011;24915;50.858;4.376;2023-02-26T01:22:01;18.58;;;4.78;;
39188;SDS011;24915;50.858;4.376;2023-02-26T01:24:32;17.63;;;4.80;;
39188;SDS011;24915;50.858;4.376;2023-02-26T01:26:59;18.48;;;4.88;;
39188;SDS011;24915;50.858;4.376;2023-02-26T01:29:25;22.00;;;4.82;;
39188;SDS011;24915;50.858;4.376;2023-02-26T01:31:53;11.43;;;4.20;;
39188;SDS011;24915;50.858;4.376;2023-02-26T01:37:25;16.02;;;5.22;;
39188;SDS011;24915;50.858;4.376;2023-02-26T01:42:50;17.85;;;4.68;;
39188;SDS011;24915;50.858;4.376;2023-02-26T01:45:20;19.95;;;4.65;;
39188;SDS011;24915;50.858;4.376;2023-02-26T01:48:11;18.10;;;4.18;;
39188;SDS011;24915;50.858;4.376;2023-02-26T01:50:44;13.13;;;4.63;;
39188;SDS011;24915;50.858;4.376;2023-02-26T01:53:23;15.27;;;4.82;;
39188;SDS011;24915;50.858;4.376;2023-02-26T01:55:51;23.27;;;5.10;;
39188;SDS011;24915;50.858;4.376;2023-02-26T01:58:25;13.57;;;4.68;;
39188;SDS011;24915;50.858;4.376;2023-02-26T02:00:55;20.20;;;5.32;;
39188;SDS011;24915;50.858;4.376;2023-02-26T02:03:20;21.17;;;5.40;;
39188;SDS011;24915;50.858;4.376;2023-02-26T02:05:55;19.58;;;4.85;;
39188;SDS011;24915;50.858;4.376;2023-02-26T02:08:35;17.38;;;3.95;;
39188;SDS011;24915;50.858;4.376;2023-02-26T02:11:01;12.35;;;4.07;;
39188;SDS011;24915;50.858;4.376;2023-02-26T02:23:59;17.60;;;4.72;;
39188;SDS011;24915;50.858;4.376;2023-02-26T02:31:44;13.52;;;4.57;;
39188;SDS011;24915;50.858;4.376;2023-02-26T02:34:21;17.33;;;4.57;;
39188;SDS011;24915;50.858;4.376;2023-02-26T02:39:41;16.73;;;4.70;;
39188;SDS011;24915;50.858;4.376;2023-02-26T02:44:58;18.75;;;5.43;;
39188;SDS011;24915;50.858;4.376;2023-02-26T02:47:29;26.50;;;4.45;;
39188;SDS011;24915;50.858;4.376;2023-02-26T02:52:53;18.30;;;4.07;;
39188;SDS011;24915;50.858;4.376;2023-02-26T02:55:28;15.30;;;4.57;;
39188;SDS011;24915;50.858;4.376;2023-02-26T02:58:09;14.38;;;4.85;;
39188;SDS011;24915;50.858;4.376;2023-02-26T03:00:42;13.67;;;3.87;;
39188;SDS011;24915;50.858;4.376;2023-02-26T03:03:42;18.23;;;3.63;;
39188;SDS011;24915;50.858;4.376;2023-02-26T03:06:19;14.93;;;4.75;;
39188;SDS011;24915;50.858;4.376;2023-02-26T03:08:45;15.35;;;4.55;;
39188;SDS011;24915;50.858;4.376;2023-02-26T03:11:12;14.38;;;4.38;;
39188;SDS011;24915;50.858;4.376;2023-02-26T03:13:38;12.60;;;4.05;;
39188;SDS011;24915;50.858;4.376;2023-02-26T03:19:18;16.85;;;3.35;;
39188;SDS011;24915;50.858;4.376;2023-02-26T03:24:31;14.95;;;3.05;;
39188;SDS011;24915;50.858;4.376;2023-02-26T03:29:43;8.65;;;2.85;;
39188;SDS011;24915;50.858;4.376;2023-02-26T03:32:20;11.68;;;3.08;;
39188;SDS011;24915;50.858;4.376;2023-02-26T03:35:30;9.18;;;2.78;;
39188;SDS011;24915;50.858;4.376;2023-02-26T03:37:58;11.45;;;2.97;;
39188;SDS011;24915;50.858;4.376;2023-02-26T03:40:33;22.67;;;3.75;;
39188;SDS011;24915;50.858;4.376;2023-02-26T03:43:13;15.07;;;3.38;;
39188;SDS011;24915;50.858;4.376;2023-02-26T03:45:48;15.30;;;3.53;;
39188;SDS011;24915;50.858;4.376;2023-02-26T03:48:19;18.63;;;3.38;;
39188;SDS011;24915;50.858;4.376;2023-02-26T03:50:50;10.15;;;2.90;;
39188;SDS011;24915;50.858;4.376;2023-02-26T03:53:21;10.93;;;2.97;;
39188;SDS011;24915;50.858;4.376;2023-02-26T03:56:00;17.42;;;3.08;;
39188;SDS011;24915;50.858;4.376;2023-02-26T03:58:31;9.43;;;2.92;;
39188;SDS011;24915;50.858;4.376;2023-02-26T04:01:03;10.30;;;2.80;;
39188;SDS011;24915;50.858;4.376;2023-02-26T04:06:04;9.07;;;3.10;;
39188;SDS011;24915;50.858;4.376;2023-02-26T04:08:30;13.25;;;3.08;;
39188;SDS011;24915;50.858;4.376;2023-02-26T04:11:03;15.93;;;3.22;;
39188;SDS011;24915;50.858;4.376;2023-02-26T04:13:33;13.93;;;3.22;;
39188;SDS011;24915;50.858;4.376;2023-02-26T04:15:59;12.43;;;3.33;;
39188;SDS011;24915;50.858;4.376;2023-02-26T04:18:25;11.43;;;3.13;;
39188;SDS011;24915;50.858;4.376;2023-02-26T04:20:50;15.93;;;3.38;;
39188;SDS011;24915;50.858;4.376;2023-02-26T04:23:16;14.93;;;3.15;;
39188;SDS011;24915;50.858;4.376;2023-02-26T04:25:43;14.68;;;3.30;;
39188;SDS011;24915;50.858;4.376;2023-02-26T04:28:09;8.73;;;2.78;;
39188;SDS011;24915;50.858;4.376;2023-02-26T04:30:35;13.10;;;2.90;;
39188;SDS011;24915;50.858;4.376;2023-02-26T04:33:00;11.82;;;3.10;;
39188;SDS011;24915;50.858;4.376;2023-02-26T04:35:26;13.85;;;3.30;;
39188;SDS011;24915;50.858;4.376;2023-02-26T04:37:52;8.05;;;2.60;;
39188;SDS011;24915;50.858;4.376;2023-02-26T04:40:18;8.48;;;2.90;;
39188;SDS011;24915;50.858;4.376;2023-02-26T04:42:43;13.55;;;3.03;;
39188;SDS011;24915;50.858;4.376;2023-02-26T04:45:09;13.60;;;3.50;;
39188;SDS011;24915;50.858;4.376;2023-02-26T04:47:35;6.70;;;2.33;;
39188;SDS011;24915;50.858;4.376;2023-02-26T04:50:00;15.38;;;3.63;;
39188;SDS011;24915;50.858;4.376;2023-02-26T04:52:26;15.70;;;2.70;;
39188;SDS011;24915;50.858;4.376;2023-02-26T04:54:52;14.93;;;2.90;;
39188;SDS011;24915;50.858;4.376;2023-02-26T04:57:17;8.90;;;2.90;;
39188;SDS011;24915;50.858;4.376;2023-02-26T04:59:43;11.27;;;2.45;;
39188;SDS011;24915;50.858;4.376;2023-02-26T05:02:09;10.13;;;2.50;;
39188;SDS011;24915;50.858;4.376;2023-02-26T05:04:34;10.35;;;2.72;;
39188;SDS011;24915;50.858;4.376;2023-02-26T05:07:00;8.68;;;2.47;;
39188;SDS011;24915;50.858;4.376;2023-02-26T05:09:26;8.30;;;2.42;;
39188;SDS011;24915;50.858;4.376;2023-02-26T05:11:51;10.02;;;3.08;;
39188;SDS011;24915;50.858;4.376;2023-02-26T05:14:17;9.07;;;3.00;;
39188;SDS011;24915;50.858;4.376;2023-02-26T05:16:43;9.40;;;2.42;;
39188;SDS011;24915;50.858;4.376;2023-02-26T05:19:08;13.77;;;2.60;;
39188;SDS011;24915;50.858;4.376;2023-02-26T05:21:34;10.75;;;2.92;;
39188;SDS011;24915;50.858;4.376;2023-02-26T05:24:00;7.80;;;2.38;;
39188;SDS011;24915;50.858;4.376;2023-02-26T05:26:26;5.93;;;1.90;;
39188;SDS011;24915;50.858;4.376;2023-02-26T05:28:51;16.52;;;2.72;;
39188;SDS011;24915;50.858;4.376;2023-02-26T05:31:17;12.48;;;2.90;;
39188;SDS011;24915;50.858;4.376;2023-02-26T05:33:43;15.32;;;2.35;;
39188;SDS011;24915;50.858;4.376;2023-02-26T05:36:09;15.52;;;2.78;;
39188;SDS011;24915;50.858;4.376;2023-02-26T05:38:34;6.70;;;2.42;;
39188;SDS011;24915;50.858;4.376;2023-02-26T05:41:00;9.73;;;2.63;;
39188;SDS011;24915;50.858;4.376;2023-02-26T05:43:27;10.77;;;2.55;;
39188;SDS011;24915;50.858;4.376;2023-02-26T05:45:52;11.65;;;2.50;;
39188;SDS011;24915;50.858;4.376;2023-02-26T05:48:19;13.07;;;2.63;;
39188;SDS011;24915;50.858;4.376;2023-02-26T05:50:45;9.27;;;2.67;;
39188;SDS011;24915;50.858;4.376;2023-02-26T05:53:13;11.13;;;2.30;;
39188;SDS011;24915;50.858;4.376;2023-02-26T05:55:38;15.02;;;2.75;;
39188;SDS011;24915;50.858;4.376;2023-02-26T05:58:04;11.60;;;2.45;;
39188;SDS011;24915;50.858;4.376;2023-02-26T06:00:29;9.18;;;2.45;;
39188;SDS011;24915;50.858;4.376;2023-02-26T06:02:55;10.75;;;2.38;;
39188;SDS011;24915;50.858;4.376;2023-02-26T06:05:21;8.32;;;2.35;;
39188;SDS011;24915;50.858;4.376;2023-02-26T06:07:47;12.68;;;3.40;;
39188;SDS011;24915;50.858;4.376;2023-02-26T06:10:12;11.23;;;2.75;;
39188;SDS011;24915;50.858;4.376;2023-02-26T06:12:38;9.00;;;3.13;;
39188;SDS011;24915;50.858;4.376;2023-02-26T06:15:05;8.73;;;2.15;;
39188;SDS011;24915;50.858;4.376;2023-02-26T06:17:32;13.05;;;2.67;;
39188;SDS011;24915;50.858;4.376;2023-02-26T06:19:58;10.73;;;2.80;;
39188;SDS011;24915;50.858;4.376;2023-02-26T06:22:23;6.95;;;2.85;;
39188;SDS011;24915;50.858;4.376;2023-02-26T06:24:49;12.35;;;2.20;;
39188;SDS011;24915;50.858;4.376;2023-02-26T06:27:15;6.30;;;2.03;;
39188;SDS011;24915;50.858;4.376;2023-02-26T06:29:41;5.65;;;2.20;;
39188;SDS011;24915;50.858;4.376;2023-02-26T06:32:06;17.30;;;3.22;;
39188;SDS011;24915;50.858;4.376;2023-02-26T06:34:32;10.23;;;2.75;;
39188;SDS011;24915;50.858;4.376;2023-02-26T06:36:58;11.45;;;2.95;;
39188;SDS011;24915;50.858;4.376;2023-02-26T06:39:24;9.93;;;2.50;;
39188;SDS011;24915;50.858;4.376;2023-02-26T06:41:50;13.43;;;2.28;;
39188;SDS011;24915;50.858;4.376;2023-02-26T06:44:16;9.93;;;2.33;;
39188;SDS011;24915;50.858;4.376;2023-02-26T06:46:41;16.52;;;2.80;;
39188;SDS011;24915;50.858;4.376;2023-02-26T06:49:07;8.55;;;2.53;;
39188;SDS011;24915;50.858;4.376;2023-02-26T06:51:33;14.13;;;2.58;;
39188;SDS011;24915;50.858;4.376;2023-02-26T06:53:59;14.35;;;2.65;;
39188;SDS011;24915;50.858;4.376;2023-02-26T06:56:25;11.35;;;3.50;;
39188;SDS011;24915;50.858;4.376;2023-02-26T06:58:51;14.48;;;2.70;;
39188;SDS011;24915;50.858;4.376;2023-02-26T07:01:17;16.55;;;2.60;;
39188;SDS011;24915;50.858;4.376;2023-02-26T07:03:42;11.90;;;2.20;;
39188;SDS011;24915;50.858;4.376;2023-02-26T07:06:08;10.85;;;1.90;;
39188;SDS011;24915;50.858;4.376;2023-02-26T07:08:36;9.70;;;2.60;;
39188;SDS011;24915;50.858;4.376;2023-02-26T07:11:02;12.90;;;1.98;;
39188;SDS011;24915;50.858;4.376;2023-02-26T07:13:28;11.38;;;2.28;;
39188;SDS011;24915;50.858;4.376;2023-02-26T07:15:54;7.57;;;1.83;;
39188;SDS011;24915;50.858;4.376;2023-02-26T07:18:20;10.13;;;2.53;;
39188;SDS011;24915;50.858;4.376;2023-02-26T07:20:47;12.50;;;2.97;;
39188;SDS011;24915;50.858;4.376;2023-02-26T07:23:14;10.15;;;2.47;;
39188;SDS011;24915;50.858;4.376;2023-02-26T07:25:40;10.25;;;1.80;;
39188;SDS011;24915;50.858;4.376;2023-02-26T07:28:06;8.65;;;2.17;;
39188;SDS011;24915;50.858;4.376;2023-02-26T07:30:32;12.13;;;1.80;;
39188;SDS011;24915;50.858;4.376;2023-02-26T07:32:58;7.20;;;2.22;;
39188;SDS011;24915;50.858;4.376;2023-02-26T07:35:23;8.40;;;1.90;;
39188;SDS011;24915;50.858;4.376;2023-02-26T07:37:49;6.65;;;1.80;;
39188;SDS011;24915;50.858;4.376;2023-02-26T07:40:16;8.57;;;1.98;;
39188;SDS011;24915;50.858;4.376;2023-02-26T07:42:42;8.18;;;1.90;;
39188;SDS011;24915;50.858;4.376;2023-02-26T07:45:08;10.93;;;2.67;;
39188;SDS011;24915;50.858;4.376;2023-02-26T07:47:35;12.40;;;2.33;;
39188;SDS011;24915;50.858;4.376;2023-02-26T07:50:01;6.65;;;2.00;;
39188;SDS011;24915;50.858;4.376;2023-02-26T07:52:26;13.75;;;1.67;;
39188;SDS011;24915;50.858;4.376;2023-02-26T07:54:53;7.88;;;1.73;;
39188;SDS011;24915;50.858;4.376;2023-02-26T07:57:18;6.20;;;1.95;;
39188;SDS011;24915;50.858;4.376;2023-02-26T07:59:44;6.28;;;1.75;;
39188;SDS011;24915;50.858;4.376;2023-02-26T08:02:11;4.70;;;1.83;;
39188;SDS011;24915;50.858;4.376;2023-02-26T08:04:37;7.85;;;1.92;;
39188;SDS011;24915;50.858;4.376;2023-02-26T08:07:03;9.52;;;2.30;;
39188;SDS011;24915;50.858;4.376;2023-02-26T08:09:29;7.88;;;2.17;;
39188;SDS011;24915;50.858;4.376;2023-02-26T08:11:54;5.97;;;1.83;;
39188;SDS011;24915;50.858;4.376;2023-02-26T08:14:20;9.60;;;1.95;;
39188;SDS011;24915;50.858;4.376;2023-02-26T08:16:46;8.18;;;1.95;;
39188;SDS011;24915;50.858;4.376;2023-02-26T08:19:12;5.72;;;1.90;;
39188;SDS011;24915;50.858;4.376;2023-02-26T08:21:38;5.20;;;1.85;;
39188;SDS011;24915;50.858;4.376;2023-02-26T08:24:04;12.85;;;1.90;;
39188;SDS011;24915;50.858;4.376;2023-02-26T08:26:30;12.55;;;2.55;;
39188;SDS011;24915;50.858;4.376;2023-02-26T08:28:58;5.13;;;1.83;;
39188;SDS011;24915;50.858;4.376;2023-02-26T08:31:24;6.97;;;2.30;;
39188;SDS011;24915;50.858;4.376;2023-02-26T08:33:52;11.88;;;2.08;;
39188;SDS011;24915;50.858;4.376;2023-02-26T08:36:17;8.70;;;1.73;;
39188;SDS011;24915;50.858;4.376;2023-02-26T08:38:46;7.35;;;1.88;;
39188;SDS011;24915;50.858;4.376;2023-02-26T08:41:11;6.25;;;1.40;;
39188;SDS011;24915;50.858;4.376;2023-02-26T08:43:37;7.00;;;1.80;;
39188;SDS011;24915;50.858;4.376;2023-02-26T08:46:03;11.88;;;2.10;;
39188;SDS011;24915;50.858;4.376;2023-02-26T08:48:29;10.52;;;2.92;;
39188;SDS011;24915;50.858;4.376;2023-02-26T08:50:54;7.63;;;2.17;;
39188;SDS011;24915;50.858;4.376;2023-02-26T08:53:20;8.50;;;2.10;;
39188;SDS011;24915;50.858;4.376;2023-02-26T08:55:46;8.02;;;2.10;;
39188;SDS011;24915;50.858;4.376;2023-02-26T08:58:16;10.20;;;1.73;;
39188;SDS011;24915;50.858;4.376;2023-02-26T09:00:42;5.55;;;2.20;;
39188;SDS011;24915;50.858;4.376;2023-02-26T09:03:08;9.25;;;2.20;;
39188;SDS011;24915;50.858;4.376;2023-02-26T09:05:34;6.85;;;2.53;;
39188;SDS011;24915;50.858;4.376;2023-02-26T09:08:00;5.90;;;1.70;;
39188;SDS011;24915;50.858;4.376;2023-02-26T09:10:26;6.05;;;1.52;;
39188;SDS011;24915;50.858;4.376;2023-02-26T09:12:52;8.13;;;1.80;;
39188;SDS011;24915;50.858;4.376;2023-02-26T09:15:18;4.07;;;1.83;;
39188;SDS011;24915;50.858;4.376;2023-02-26T09:17:44;3.53;;;1.98;;
39188;SDS011;24915;50.858;4.376;2023-02-26T09:20:10;7.43;;;2.33;;
39188;SDS011;24915;50.858;4.376;2023-02-26T09:22:38;11.48;;;2.28;;
39188;SDS011;24915;50.858;4.376;2023-02-26T09:25:04;6.78;;;1.60;;
39188;SDS011;24915;50.858;4.376;2023-02-26T09:27:31;7.78;;;1.98;;
39188;SDS011;24915;50.858;4.376;2023-02-26T09:29:57;7.80;;;1.85;;
39188;SDS011;24915;50.858;4.376;2023-02-26T09:32:23;5.45;;;1.48;;
39188;SDS011;24915;50.858;4.376;2023-02-26T09:34:50;4.60;;;1.60;;
39188;SDS011;24915;50.858;4.376;2023-02-26T09:37:15;2.33;;;1.17;;
39188;SDS011;24915;50.858;4.376;2023-02-26T09:39:41;8.20;;;1.90;;
39188;SDS011;24915;50.858;4.376;2023-02-26T09:42:21;5.07;;;2.40;;
39188;SDS011;24915;50.858;4.376;2023-02-26T09:44:50;6.38;;;1.73;;
39188;SDS011;24915;50.858;4.376;2023-02-26T09:47:32;6.13;;;1.25;;
39188;SDS011;24915;50.858;4.376;2023-02-26T09:55:50;3.05;;;1.30;;
39188;SDS011;24915;50.858;4.376;2023-02-26T09:58:20;4.53;;;1.35;;
39188;SDS011;24915;50.858;4.376;2023-02-26T10:01:00;3.42;;;1.20;;
39188;SDS011;24915;50.858;4.376;2023-02-26T10:13:58;2.45;;;1.30;;
39188;SDS011;24915;50.858;4.376;2023-02-26T10:16:32;2.28;;;1.00;;
39188;SDS011;24915;50.858;4.376;2023-02-26T10:19:07;3.42;;;1.20;;
39188;SDS011;24915;50.858;4.376;2023-02-26T10:24:09;3.78;;;1.10;;
39188;SDS011;24915;50.858;4.376;2023-02-26T10:26:50;4.97;;;1.80;;
39188;SDS011;24915;50.858;4.376;2023-02-26T10:29:32;4.20;;;2.03;;
39188;SDS011;24915;50.858;4.376;2023-02-26T10:34:59;6.85;;;1.50;;
39188;SDS011;24915;50.858;4.376;2023-02-26T10:37:37;3.67;;;1.50;;
39188;SDS011;24915;50.858;4.376;2023-02-26T10:45:47;6.75;;;1.50;;
39188;SDS011;24915;50.858;4.376;2023-02-26T10:51:01;5.97;;;2.10;;
39188;SDS011;24915;50.858;4.376;2023-02-26T10:53:45;3.35;;;1.35;;
39188;SDS011;24915;50.858;4.376;2023-02-26T10:56:16;4.10;;;1.25;;
39188;SDS011;24915;50.858;4.376;2023-02-26T10:58:50;2.40;;;1.17;;
39188;SDS011;24915;50.858;4.376;2023-02-26T11:01:17;3.75;;;1.20;;
39188;SDS011;24915;50.858;4.376;2023-02-26T11:03:46;3.92;;;0.90;;
39188;SDS011;24915;50.858;4.376;2023-02-26T11:06:23;6.68;;;1.50;;
39188;SDS011;24915;50.858;4.376;2023-02-26T11:08:56;6.95;;;1.35;;
39188;SDS011;24915;50.858;4.376;2023-02-26T11:11:41;8.25;;;1.17;;
39188;SDS011;24915;50.858;4.376;2023-02-26T11:14:10;6.88;;;2.65;;
39188;SDS011;24915;50.858;4.376;2023-02-26T11:16:44;4.15;;;1.73;;
39188;SDS011;24915;50.858;4.376;2023-02-26T11:19:16;9.25;;;2.60;;
39188;SDS011;24915;50.858;4.376;2023-02-26T11:21:49;3.63;;;1.50;;
39188;SDS011;24915;50.858;4.376;2023-02-26T11:24:34;5.18;;;1.45;;
39188;SDS011;24915;50.858;4.376;2023-02-26T11:27:03;5.75;;;1.65;;
39188;SDS011;24915;50.858;4.376;2023-02-26T11:29:34;6.32;;;2.00;;
39188;SDS011;24915;50.858;4.376;2023-02-26T11:32:17;4.07;;;1.70;;
39188;SDS011;24915;50.858;4.376;2023-02-26T11:34:47;5.32;;;1.35;;
39188;SDS011;24915;50.858;4.376;2023-02-26T11:37:21;4.28;;;1.50;;
39188;SDS011;24915;50.858;4.376;2023-02-26T11:39:54;2.95;;;1.30;;
39188;SDS011;24915;50.858;4.376;2023-02-26T11:42:28;4.53;;;1.50;;
39188;SDS011;24915;50.858;4.376;2023-02-26T11:44:53;6.20;;;1.33;;
39188;SDS011;24915;50.858;4.376;2023-02-26T11:47:28;7.30;;;1.85;;
39188;SDS011;24915;50.858;4.376;2023-02-26T11:49:55;2.70;;;1.77;;
39188;SDS011;24915;50.858;4.376;2023-02-26T11:55:05;2.72;;;1.55;;
39188;SDS011;24915;50.858;4.376;2023-02-26T11:57:45;4.75;;;1.90;;
39188;SDS011;24915;50.858;4.376;2023-02-26T12:00:39;3.38;;;1.85;;
39188;SDS011;24915;50.858;4.376;2023-02-26T12:03:05;4.20;;;1.40;;
39188;SDS011;24915;50.858;4.376;2023-02-26T12:05:34;1.92;;;1.00;;
39188;SDS011;24915;50.858;4.376;2023-02-26T12:08:02;6.07;;;1.30;;
39188;SDS011;24915;50.858;4.376;2023-02-26T12:43:48;4.82;;;1.27;;
39188;SDS011;24915;50.858;4.376;2023-02-26T12:49:32;5.25;;;1.70;;
39188;SDS011;24915;50.858;4.376;2023-02-26T12:52:22;3.28;;;1.27;;
39188;SDS011;24915;50.858;4.376;2023-02-26T12:55:09;1.30;;;1.00;;
39188;SDS011;24915;50.858;4.376;2023-02-26T13:09:26;4.97;;;1.45;;
39188;SDS011;24915;50.858;4.376;2023-02-26T13:20:15;4.40;;;1.42;;
39188;SDS011;24915;50.858;4.376;2023-02-26T13:22:47;6.15;;;1.15;;
39188;SDS011;24915;50.858;4.376;2023-02-26T13:27:47;3.17;;;1.10;;
39188;SDS011;24915;50.858;4.376;2023-02-26T13:30:19;3.63;;;1.40;;
39188;SDS011;24915;50.858;4.376;2023-02-26T13:33:14;2.63;;;1.17;;
39188;SDS011;24915;50.858;4.376;2023-02-26T13:35:44;2.17;;;1.13;;
39188;SDS011;24915;50.858;4.376;2023-02-26T13:38:20;1.38;;;1.05;;
39188;SDS011;24915;50.858;4.376;2023-02-26T13:41:18;3.95;;;1.50;;
39188;SDS011;24915;50.858;4.376;2023-02-26T13:47:08;4.25;;;1.20;;
39188;SDS011;24915;50.858;4.376;2023-02-26T13:52:27;3.47;;;1.30;;
39188;SDS011;24915;50.858;4.376;2023-02-26T13:54:55;4.32;;;1.60;;
39188;SDS011;24915;50.858;4.376;2023-02-26T13:57:33;3.20;;;1.25;;
39188;SDS011;24915;50.858;4.376;2023-02-26T14:00:06;6.30;;;1.20;;
39188;SDS011;24915;50.858;4.376;2023-02-26T14:02:49;4.60;;;1.25;;
39188;SDS011;24915;50.858;4.376;2023-02-26T14:08:18;6.10;;;3.42;;
39188;SDS011;24915;50.858;4.376;2023-02-26T14:13:18;2.67;;;1.38;;
39188;SDS011;24915;50.858;4.376;2023-02-26T14:15:59;1.92;;;1.25;;
39188;SDS011;24915;50.858;4.376;2023-02-26T14:26:27;1.50;;;1.05;;
39188;SDS011;24915;50.858;4.376;2023-02-26T14:34:15;1.88;;;1.10;;
39188;SDS011;24915;50.858;4.376;2023-02-26T14:36:52;3.78;;;1.40;;
39188;SDS011;24915;50.858;4.376;2023-02-26T14:41:49;2.28;;;1.20;;
39188;SDS011;24915;50.858;4.376;2023-02-26T14:44:24;4.30;;;1.80;;
39188;SDS011;24915;50.858;4.376;2023-02-26T14:46:55;4.20;;;1.48;;
39188;SDS011;24915;50.858;4.376;2023-02-26T15:00:46;4.40;;;1.20;;
39188;SDS011;24915;50.858;4.376;2023-02-26T15:06:37;3.63;;;1.30;;
39188;SDS011;24915;50.858;4.376;2023-02-26T15:09:30;4.60;;;1.30;;
39188;SDS011;24915;50.858;4.376;2023-02-26T15:18:24;4.22;;;1.80;;
39188;SDS011;24915;50.858;4.376;2023-02-26T15:20:49;3.85;;;1.73;;
39188;SDS011;24915;50.858;4.376;2023-02-26T15:23:27;2.33;;;1.20;;
39188;SDS011;24915;50.858;4.376;2023-02-26T15:26:02;3.80;;;1.42;;
39188;SDS011;24915;50.858;4.376;2023-02-26T15:28:31;3.08;;;1.42;;
39188;SDS011;24915;50.858;4.376;2023-02-26T15:31:00;2.60;;;1.90;;
39188;SDS011;24915;50.858;4.376;2023-02-26T15:33:30;3.53;;;1.73;;
39188;SDS011;24915;50.858;4.376;2023-02-26T15:35:56;4.35;;;2.00;;
39188;SDS011;24915;50.858;4.376;2023-02-26T15:38:23;3.90;;;1.95;;
39188;SDS011;24915;50.858;4.376;2023-02-26T15:40:51;3.00;;;1.08;;
39188;SDS011;24915;50.858;4.376;2023-02-26T15:43:26;2.42;;;1.52;;
39188;SDS011;24915;50.858;4.376;2023-02-26T15:45:53;6.70;;;1.50;;
39188;SDS011;24915;50.858;4.376;2023-02-26T15:48:24;3.70;;;1.50;;
39188;SDS011;24915;50.858;4.376;2023-02-26T15:50:54;4.43;;;1.65;;
39188;SDS011;24915;50.858;4.376;2023-02-26T15:53:28;3.55;;;1.42;;
39188;SDS011;24915;50.858;4.376;2023-02-26T15:56:00;2.97;;;1.73;;
39188;SDS011;24915;50.858;4.376;2023-02-26T15:58:43;3.75;;;1.85;;
39188;SDS011;24915;50.858;4.376;2023-02-26T16:01:30;4.40;;;1.90;;
39188;SDS011;24915;50.858;4.376;2023-02-26T16:03:57;3.78;;;2.22;;
39188;SDS011;24915;50.858;4.376;2023-02-26T16:06:33;3.80;;;1.77;;
39188;SDS011;24915;50.858;4.376;2023-02-26T16:09:00;5.15;;;1.70;;
39188;SDS011;24915;50.858;4.376;2023-02-26T16:11:30;2.65;;;1.60;;
39188;SDS011;24915;50.858;4.376;2023-02-26T16:13:59;3.85;;;1.80;;
39188;SDS011;24915;50.858;4.376;2023-02-26T16:16:27;4.00;;;2.10;;
39188;SDS011;24915;50.858;4.376;2023-02-26T16:19:05;3.53;;;1.63;;
39188;SDS011;24915;50.858;4.376;2023-02-26T16:21:33;3.22;;;1.85;;
39188;SDS011;24915;50.858;4.376;2023-02-26T16:24:03;7.03;;;2.08;;
39188;SDS011;24915;50.858;4.376;2023-02-26T16:26:32;3.80;;;2.17;;
39188;SDS011;24915;50.858;4.376;2023-02-26T16:29:06;3.72;;;1.95;;
39188;SDS011;24915;50.858;4.376;2023-02-26T16:31:46;3.38;;;2.10;;
39188;SDS011;24915;50.858;4.376;2023-02-26T16:39:45;5.57;;;3.20;;
39188;SDS011;24915;50.858;4.376;2023-02-26T16:44:43;5.00;;;2.08;;
39188;SDS011;24915;50.858;4.376;2023-02-26T16:47:10;5.80;;;2.58;;
39188;SDS011;24915;50.858;4.376;2023-02-26T16:49:36;11.55;;;4.00;;
39188;SDS011;24915;50.858;4.376;2023-02-26T16:52:05;6.78;;;2.42;;
39188;SDS011;24915;50.858;4.376;2023-02-26T16:54:35;3.95;;;2.40;;
39188;SDS011;24915;50.858;4.376;2023-02-26T16:57:12;3.60;;;1.63;;
39188;SDS011;24915;50.858;4.376;2023-02-26T16:59:44;6.13;;;2.22;;
39188;SDS011;24915;50.858;4.376;2023-02-26T17:02:24;4.40;;;2.00;;
39188;SDS011;24915;50.858;4.376;2023-02-26T17:04:59;8.00;;;2.80;;
39188;SDS011;24915;50.858;4.376;2023-02-26T17:07:45;7.88;;;3.65;;
39188;SDS011;24915;50.858;4.376;2023-02-26T17:10:17;6.53;;;3.40;;
39188;SDS011;24915;50.858;4.376;2023-02-26T17:12:48;9.20;;;3.97;;
39188;SDS011;24915;50.858;4.376;2023-02-26T17:17:44;5.97;;;3.20;;
39188;SDS011;24915;50.858;4.376;2023-02-26T17:20:10;7.82;;;3.45;;
39188;SDS011;24915;50.858;4.376;2023-02-26T17:22:36;8.07;;;3.53;;
39188;SDS011;24915;50.858;4.376;2023-02-26T17:25:03;8.27;;;3.75;;
39188;SDS011;24915;50.858;4.376;2023-02-26T17:27:32;8.77;;;3.88;;
39188;SDS011;24915;50.858;4.376;2023-02-26T17:29:59;7.93;;;3.67;;
39188;SDS011;24915;50.858;4.376;2023-02-26T17:32:26;6.68;;;4.07;;
39188;SDS011;24915;50.858;4.376;2023-02-26T17:34:54;8.98;;;3.97;;
39188;SDS011;24915;50.858;4.376;2023-02-26T17:37:20;10.88;;;3.85;;
39188;SDS011;24915;50.858;4.376;2023-02-26T17:39:48;5.90;;;3.08;;
39188;SDS011;24915;50.858;4.376;2023-02-26T17:42:17;8.02;;;3.65;;
39188;SDS011;24915;50.858;4.376;2023-02-26T17:44:45;7.13;;;3.63;;
39188;SDS011;24915;50.858;4.376;2023-02-26T17:47:13;8.77;;;3.85;;
39188;SDS011;24915;50.858;4.376;2023-02-26T17:49:41;10.40;;;4.15;;
39188;SDS011;24915;50.858;4.376;2023-02-26T17:52:08;6.63;;;3.92;;
39188;SDS011;24915;50.858;4.376;2023-02-26T17:54:33;7.00;;;3.15;;
39188;SDS011;24915;50.858;4.376;2023-02-26T17:56:59;8.35;;;3.67;;
39188;SDS011;24915;50.858;4.376;2023-02-26T17:59:25;10.27;;;3.47;;
39188;SDS011;24915;50.858;4.376;2023-02-26T18:01:51;6.00;;;3.13;;
39188;SDS011;24915;50.858;4.376;2023-02-26T18:04:17;11.45;;;3.65;;
39188;SDS011;24915;50.858;4.376;2023-02-26T18:06:43;7.93;;;3.85;;
39188;SDS011;24915;50.858;4.376;2023-02-26T18:09:10;7.13;;;3.63;;
39188;SDS011;24915;50.858;4.376;2023-02-26T18:11:37;7.07;;;3.72;;
39188;SDS011;24915;50.858;4.376;2023-02-26T18:14:03;8.07;;;3.58;;
39188;SDS011;24915;50.858;4.376;2023-02-26T18:16:34;9.15;;;4.18;;
39188;SDS011;24915;50.858;4.376;2023-02-26T18:19:02;10.27;;;4.03;;